createdAt,value
2022-07-27T00:01:50.589Z,93.10
2022-07-27T00:04:36.138Z,93.10
2022-07-27T00:07:12.177Z,93.10
2022-07-27T00:09:41.488Z,93.00
2022-07-27T00:12:15.517Z,92.90
2022-07-27T00:14:44.933Z,92.80
2022-07-27T00:17:14.286Z,92.80
2022-07-27T00:19:43.345Z,92.50
2022-07-27T00:22:12.556Z,92.60
2022-07-27T00:24:41.640Z,92.50
2022-07-27T00:27:10.841Z,92.30
2022-07-27T00:29:39.986Z,92.30
2022-07-27T00:32:12.617Z,92.20
2022-07-27T00:34:42.168Z,92.10
2022-07-27T00:37:11.278Z,92.00
2022-07-27T00:39:40.506Z,91.90
2022-07-27T00:42:12.427Z,91.80
2022-07-27T00:44:41.552Z,91.70
2022-07-27T00:47:10.748Z,91.40
2022-07-27T00:49:39.795Z,91.30
2022-07-27T00:52:10.005Z,91.30
2022-07-27T00:54:39.382Z,91.10
2022-07-27T00:57:11.240Z,91.00
2022-07-27T00:59:41.233Z,91.00
2022-07-27T01:02:12.035Z,90.90
2022-07-27T01:04:41.544Z,90.80
2022-07-27T01:07:15.921Z,90.80
2022-07-27T01:10:00.507Z,91.10
2022-07-27T01:12:33.325Z,90.70
2022-07-27T01:15:02.908Z,90.70
2022-07-27T01:17:32.555Z,90.60
2022-07-27T01:20:02.238Z,90.60
2022-07-27T01:22:31.622Z,90.60
2022-07-27T01:25:00.983Z,90.40
2022-07-27T01:27:30.372Z,90.30
2022-07-27T01:30:19.467Z,90.20
2022-07-27T01:32:48.802Z,90.10
2022-07-27T01:35:18.180Z,90.00
2022-07-27T01:37:48.177Z,90.00
2022-07-27T01:40:26.745Z,89.80
2022-07-27T01:42:58.905Z,89.50
2022-07-27T01:45:29.329Z,89.40
2022-07-27T01:47:58.714Z,89.30
2022-07-27T01:50:28.128Z,89.20
2022-07-27T01:52:57.458Z,89.10
2022-07-27T01:55:27.286Z,89.00
2022-07-27T01:58:08.285Z,88.90
2022-07-27T02:00:38.330Z,88.70
2022-07-27T02:03:12.443Z,88.70
2022-07-27T02:05:42.088Z,88.50
2022-07-27T02:08:12.044Z,88.50
2022-07-27T02:11:02.078Z,88.40
2022-07-27T02:13:31.586Z,88.20
2022-07-27T02:16:00.989Z,88.00
2022-07-27T02:18:34.860Z,87.60
2022-07-27T02:21:07.135Z,87.50
2022-07-27T02:23:37.021Z,87.30
2022-07-27T02:26:08.007Z,86.80
2022-07-27T02:28:37.751Z,86.90
2022-07-27T02:31:06.901Z,86.80
2022-07-27T02:33:36.206Z,86.70
2022-07-27T02:36:05.950Z,86.70
2022-07-27T02:38:35.161Z,86.90
2022-07-27T02:41:04.267Z,86.60
2022-07-27T02:43:33.443Z,86.60
2022-07-27T02:46:02.552Z,86.30
2022-07-27T02:48:33.699Z,86.20
2022-07-27T02:51:03.554Z,85.80
2022-07-27T02:53:33.172Z,85.80
2022-07-27T02:56:02.332Z,85.60
2022-07-27T02:58:31.423Z,85.20
2022-07-27T03:01:00.803Z,84.70
2022-07-27T03:03:33.766Z,84.50
2022-07-27T03:06:07.913Z,84.20
2022-07-27T03:08:37.791Z,84.10
2022-07-27T03:11:07.028Z,83.30
2022-07-27T03:13:36.186Z,83.20
2022-07-27T03:16:05.494Z,83.10
2022-07-27T03:18:34.778Z,82.90
2022-07-27T03:21:03.835Z,82.40
2022-07-27T03:23:32.953Z,82.20
2022-07-27T03:26:02.382Z,82.00
2022-07-27T03:28:31.479Z,81.70
2022-07-27T03:31:01.146Z,81.70
2022-07-27T03:33:30.483Z,81.40
2022-07-27T03:35:59.557Z,81.30
2022-07-27T03:38:28.700Z,81.20
2022-07-27T03:40:57.842Z,81.30
2022-07-27T03:43:26.960Z,81.40
2022-07-27T03:45:56.189Z,80.90
2022-07-27T03:48:25.390Z,80.40
2022-07-27T03:50:54.921Z,80.20
2022-07-27T03:53:24.209Z,79.30
2022-07-27T03:55:53.781Z,78.80
2022-07-27T03:58:24.432Z,79.60
2022-07-27T04:00:53.801Z,79.00
2022-07-27T04:03:22.975Z,78.10
2022-07-27T04:05:52.077Z,77.80
2022-07-27T04:08:22.383Z,78.70
2022-07-27T04:10:51.499Z,77.30
2022-07-27T04:13:22.793Z,77.30
2022-07-27T04:15:51.982Z,77.50
2022-07-27T04:18:21.063Z,77.00
2022-07-27T04:20:50.174Z,76.60
2022-07-27T04:23:19.247Z,76.60
2022-07-27T04:25:48.394Z,76.20
2022-07-27T04:28:17.589Z,75.90
2022-07-27T04:30:46.749Z,75.80
2022-07-27T04:33:16.003Z,76.10
2022-07-27T04:35:45.472Z,76.00
2022-07-27T04:38:14.573Z,75.90
2022-07-27T04:40:43.728Z,75.10
2022-07-27T04:43:12.813Z,74.30
2022-07-27T04:45:41.965Z,74.70
2022-07-27T04:48:11.830Z,75.50
2022-07-27T04:50:50.846Z,76.00
2022-07-27T04:53:20.140Z,75.40
2022-07-27T04:55:49.553Z,75.80
2022-07-27T04:58:18.808Z,74.70
2022-07-27T05:00:48.024Z,74.30
2022-07-27T05:03:17.279Z,73.00
2022-07-27T05:05:50.083Z,72.50
2022-07-27T05:08:20.729Z,73.80
2022-07-27T05:10:50.307Z,74.60
2022-07-27T05:13:19.442Z,72.80
2022-07-27T05:15:54.865Z,73.10
2022-07-27T05:18:26.419Z,72.90
2022-07-27T05:20:55.614Z,73.00
2022-07-27T05:23:24.988Z,73.10
2022-07-27T05:25:54.318Z,73.30
2022-07-27T05:28:23.720Z,72.10
2022-07-27T05:30:53.141Z,71.80
2022-07-27T05:33:22.515Z,72.50
2022-07-27T05:35:52.008Z,71.90
2022-07-27T05:38:21.327Z,72.10
2022-07-27T05:40:51.777Z,72.00
2022-07-27T05:43:21.106Z,71.90
2022-07-27T05:45:50.759Z,71.60
2022-07-27T05:48:20.259Z,71.60
2022-07-27T05:50:49.601Z,72.00
2022-07-27T05:53:19.346Z,71.90
2022-07-27T05:55:58.479Z,71.30
2022-07-27T05:58:37.877Z,72.00
2022-07-27T06:01:07.265Z,71.70
2022-07-27T06:06:36.115Z,71.20
2022-07-27T06:09:06.306Z,71.10
2022-07-27T06:11:35.833Z,71.10
2022-07-27T06:14:05.161Z,71.70
2022-07-27T06:16:34.765Z,71.30
2022-07-27T06:19:04.112Z,71.50
2022-07-27T06:21:33.573Z,70.80
2022-07-27T06:24:03.015Z,70.20
2022-07-27T06:26:32.382Z,69.80
2022-07-27T06:29:02.480Z,70.00
2022-07-27T06:31:39.463Z,69.90
2022-07-27T06:34:12.141Z,69.90
2022-07-27T06:36:46.214Z,69.90
2022-07-27T06:39:16.073Z,70.20
2022-07-27T06:41:46.043Z,70.40
2022-07-27T06:44:15.478Z,70.50
2022-07-27T06:46:44.945Z,71.40
2022-07-27T06:49:14.581Z,71.60
2022-07-27T06:51:44.146Z,71.90
2022-07-27T06:54:13.532Z,71.40
2022-07-27T06:56:42.844Z,70.80
2022-07-27T06:59:12.461Z,70.80
2022-07-27T07:01:44.442Z,71.30
2022-07-27T07:04:17.980Z,71.00
2022-07-27T07:06:54.443Z,71.10
2022-07-27T07:09:23.770Z,71.70
2022-07-27T07:11:53.077Z,71.60
2022-07-27T07:14:22.470Z,70.90
2022-07-27T07:16:52.041Z,71.20
2022-07-27T07:19:21.708Z,71.50
2022-07-27T07:21:52.789Z,71.30
2022-07-27T07:24:22.371Z,71.00
2022-07-27T07:26:51.709Z,70.30
2022-07-27T07:29:21.121Z,70.70
2022-07-27T07:31:50.472Z,70.80
2022-07-27T07:34:19.831Z,70.90
2022-07-27T07:36:49.174Z,70.70
2022-07-27T07:39:18.546Z,70.60
2022-07-27T07:41:48.009Z,71.10
2022-07-27T07:44:17.346Z,71.20
2022-07-27T07:46:47.412Z,71.60
2022-07-27T07:49:21.465Z,71.60
2022-07-27T07:52:07.695Z,71.50
2022-07-27T07:54:37.090Z,71.30
2022-07-27T07:57:06.651Z,71.00
2022-07-27T07:59:35.994Z,71.10
2022-07-27T08:02:05.689Z,71.20
2022-07-27T08:04:35.126Z,71.30
2022-07-27T08:07:07.291Z,71.60
2022-07-27T08:09:36.722Z,71.70
2022-07-27T08:12:07.573Z,71.70
2022-07-27T08:14:37.247Z,71.40
2022-07-27T08:17:06.700Z,71.50
2022-07-27T08:19:40.033Z,71.30
2022-07-27T08:22:12.520Z,71.00
2022-07-27T08:24:44.665Z,71.00
2022-07-27T08:27:13.984Z,71.80
2022-07-27T08:29:43.342Z,70.70
2022-07-27T08:32:12.911Z,70.40
2022-07-27T08:34:42.306Z,70.20
2022-07-27T08:37:15.328Z,70.00
2022-07-27T08:42:35.500Z,69.90
2022-07-27T08:45:06.528Z,69.20
2022-07-27T08:47:37.117Z,69.20
2022-07-27T08:50:24.387Z,68.90
2022-07-27T08:53:09.916Z,68.90
2022-07-27T08:55:41.445Z,69.20
2022-07-27T08:58:12.480Z,69.20
2022-07-27T09:00:44.813Z,68.70
2022-07-27T09:03:19.603Z,68.40
2022-07-27T09:05:56.018Z,68.20
2022-07-27T09:08:30.422Z,67.50
2022-07-27T09:11:01.203Z,69.30
2022-07-27T09:13:35.959Z,69.40
2022-07-27T09:16:20.823Z,69.20
2022-07-27T09:18:59.621Z,69.30
2022-07-27T09:21:29.646Z,69.40
2022-07-27T09:24:17.824Z,69.60
2022-07-27T09:27:05.398Z,70.00
2022-07-27T09:29:38.468Z,68.70
2022-07-27T09:32:19.724Z,69.20
2022-07-27T09:34:49.123Z,68.90
2022-07-27T09:37:26.714Z,68.60
2022-07-27T09:40:15.593Z,68.90
2022-07-27T09:43:52.375Z,67.50
2022-07-27T09:46:08.981Z,67.70
2022-07-27T09:48:39.177Z,67.70
2022-07-27T09:51:55.628Z,68.50
2022-07-27T09:54:09.212Z,69.30
2022-07-27T09:56:38.706Z,69.60
2022-07-27T09:59:08.021Z,69.50
2022-07-27T10:01:46.867Z,69.20
2022-07-27T10:04:18.694Z,69.10
2022-07-27T10:07:02.112Z,68.80
2022-07-27T10:09:36.078Z,69.30
2022-07-27T10:12:05.743Z,69.50
2022-07-27T10:14:34.990Z,69.60
2022-07-27T10:17:04.949Z,69.60
2022-07-27T10:19:47.886Z,69.80
2022-07-27T10:22:17.123Z,69.60
2022-07-27T10:24:52.753Z,69.90
2022-07-27T10:27:30.831Z,70.30
2022-07-27T10:30:00.820Z,70.00
2022-07-27T10:32:34.900Z,70.90
2022-07-27T10:35:04.222Z,70.50
2022-07-27T10:37:35.471Z,70.90
2022-07-27T10:40:26.903Z,70.90
2022-07-27T10:43:22.373Z,70.70
2022-07-27T10:46:02.055Z,70.30
2022-07-27T10:48:48.834Z,70.80
2022-07-27T10:51:35.355Z,70.80
2022-07-27T10:54:33.607Z,71.10
2022-07-27T10:57:04.061Z,71.00
2022-07-27T11:00:07.500Z,71.30
2022-07-27T11:02:42.361Z,71.30
2022-07-27T11:05:53.822Z,71.50
2022-07-27T11:08:35.467Z,71.60
2022-07-27T11:10:54.729Z,71.70
2022-07-27T11:13:25.810Z,72.00
2022-07-27T11:16:27.996Z,72.00
2022-07-27T11:19:02.506Z,72.10
2022-07-27T11:21:50.538Z,72.20
2022-07-27T11:24:20.039Z,72.30
2022-07-27T11:26:51.688Z,72.30
2022-07-27T11:29:24.165Z,72.50
2022-07-27T11:31:57.698Z,72.60
2022-07-27T11:34:35.622Z,72.70
2022-07-27T11:37:13.382Z,72.70
2022-07-27T11:42:41.755Z,73.00
2022-07-27T11:45:11.271Z,73.00
2022-07-27T11:47:40.458Z,73.30
2022-07-27T11:50:12.720Z,73.30
2022-07-27T11:52:42.680Z,73.40
2022-07-27T11:55:12.888Z,73.50
2022-07-27T11:57:42.744Z,73.50
2022-07-27T12:00:12.884Z,73.60
2022-07-27T12:02:51.536Z,73.70
2022-07-27T12:05:21.151Z,73.90
2022-07-27T12:07:50.688Z,74.10
2022-07-27T12:10:20.505Z,74.20
2022-07-27T12:12:51.403Z,74.30
2022-07-27T12:15:44.423Z,74.40
2022-07-27T12:18:11.898Z,74.60
2022-07-27T12:20:41.260Z,74.70
2022-07-27T12:23:11.705Z,74.90
2022-07-27T12:25:42.393Z,74.90
2022-07-27T12:28:18.988Z,75.00
2022-07-27T12:30:53.451Z,75.20
2022-07-27T12:33:38.140Z,75.10
2022-07-27T12:36:10.635Z,76.30
2022-07-27T12:38:45.508Z,75.30
2022-07-27T12:41:27.693Z,75.40
2022-07-27T12:44:14.491Z,75.50
2022-07-27T12:47:00.476Z,75.70
2022-07-27T12:49:46.084Z,75.60
2022-07-27T12:52:15.820Z,75.60
2022-07-27T12:54:45.118Z,75.70
2022-07-27T12:57:24.316Z,75.80
2022-07-27T13:00:03.700Z,75.90
2022-07-27T13:02:33.211Z,76.10
2022-07-27T13:05:02.335Z,76.80
2022-07-27T13:07:31.691Z,76.10
2022-07-27T13:10:02.705Z,76.20
2022-07-27T13:12:32.897Z,76.40
2022-07-27T13:15:02.522Z,76.30
2022-07-27T13:17:31.703Z,76.40
2022-07-27T13:20:00.934Z,76.50
2022-07-27T13:22:30.418Z,76.60
2022-07-27T13:24:59.617Z,76.60
2022-07-27T13:27:29.718Z,76.60
2022-07-27T13:30:00.960Z,76.60
2022-07-27T13:32:30.513Z,76.60
2022-07-27T13:34:59.678Z,76.70
2022-07-27T13:37:29.059Z,77.00
2022-07-27T13:39:58.782Z,77.00
2022-07-27T13:42:27.948Z,77.00
2022-07-27T13:45:09.313Z,77.00
2022-07-27T13:47:40.148Z,77.00
2022-07-27T13:50:17.956Z,77.20
2022-07-27T13:52:49.383Z,77.10
2022-07-27T13:55:20.698Z,77.10
2022-07-27T13:57:51.597Z,77.40
2022-07-27T14:00:20.923Z,77.70
2022-07-27T14:02:50.149Z,77.60
2022-07-27T14:05:20.193Z,77.70
2022-07-27T14:07:49.837Z,78.00
2022-07-27T14:10:36.621Z,78.00
2022-07-27T14:13:08.717Z,78.30
2022-07-27T14:15:53.601Z,78.30
2022-07-27T14:18:29.018Z,78.50
2022-07-27T14:21:00.742Z,78.80
2022-07-27T14:23:30.982Z,78.80
2022-07-27T14:26:01.750Z,79.00
2022-07-27T14:28:32.207Z,79.30
2022-07-27T14:31:02.700Z,79.20
2022-07-27T14:33:36.726Z,79.40
2022-07-27T14:36:08.170Z,79.70
2022-07-27T14:38:38.981Z,80.00
2022-07-27T14:41:09.069Z,80.10
2022-07-27T14:43:38.424Z,80.80
2022-07-27T14:46:08.404Z,80.10
2022-07-27T14:49:04.584Z,80.10
2022-07-27T14:51:27.299Z,80.10
2022-07-27T14:53:56.659Z,80.30
2022-07-27T14:56:25.995Z,80.40
2022-07-27T14:58:55.356Z,80.30
2022-07-27T15:01:24.890Z,80.50
2022-07-27T15:03:56.480Z,80.60
2022-07-27T15:06:25.611Z,80.60
2022-07-27T15:08:54.767Z,80.70
2022-07-27T15:11:23.895Z,80.90
2022-07-27T15:13:53.033Z,80.80
2022-07-27T15:16:22.139Z,80.80
2022-07-27T15:18:51.262Z,81.00
2022-07-27T15:21:20.535Z,81.00
2022-07-27T15:23:49.789Z,81.00
2022-07-27T15:26:19.072Z,81.20
2022-07-27T15:28:48.272Z,81.40
2022-07-27T15:31:17.571Z,81.40
2022-07-27T15:33:46.748Z,81.40
2022-07-27T15:36:31.900Z,81.50
2022-07-27T15:39:02.635Z,81.60
2022-07-27T15:41:33.848Z,81.70
2022-07-27T15:44:03.002Z,81.80
2022-07-27T15:46:33.605Z,82.10
2022-07-27T15:49:03.947Z,82.10
2022-07-27T15:51:33.549Z,82.30
2022-07-27T15:54:02.638Z,82.30
2022-07-27T15:56:31.772Z,82.60
2022-07-27T15:59:00.833Z,82.70
2022-07-27T16:01:35.487Z,82.70
2022-07-27T16:04:06.419Z,83.00
2022-07-27T16:06:39.050Z,83.20
2022-07-27T16:09:10.560Z,83.30
2022-07-27T16:11:40.234Z,83.50
2022-07-27T16:14:09.583Z,83.50
2022-07-27T16:16:38.996Z,83.40
2022-07-27T16:19:13.212Z,83.60
2022-07-27T16:21:53.878Z,83.90
2022-07-27T16:24:27.280Z,84.00
2022-07-27T16:26:56.770Z,84.10
2022-07-27T16:29:28.329Z,84.20
2022-07-27T16:32:01.084Z,84.30
2022-07-27T16:34:32.504Z,84.30
2022-07-27T16:37:02.823Z,84.60
2022-07-27T16:39:34.411Z,84.80
2022-07-27T16:42:04.215Z,84.90
2022-07-27T16:44:33.696Z,85.10
2022-07-27T16:47:03.820Z,85.00
2022-07-27T16:49:36.818Z,85.30
2022-07-27T16:52:07.543Z,85.40
2022-07-27T16:54:39.530Z,85.40
2022-07-27T16:57:11.728Z,85.50
2022-07-27T16:59:42.715Z,85.70
2022-07-27T17:02:12.469Z,85.70
2022-07-27T17:04:41.915Z,86.00
2022-07-27T17:07:12.569Z,86.00
2022-07-27T17:09:42.799Z,86.10
2022-07-27T17:12:16.306Z,86.20
2022-07-27T17:14:47.520Z,86.30
2022-07-27T17:17:16.917Z,86.40
2022-07-27T17:19:46.198Z,86.60
2022-07-27T17:22:15.546Z,86.80
2022-07-27T17:24:44.923Z,87.00
2022-07-27T17:27:14.221Z,87.10
2022-07-27T17:29:44.416Z,87.20
2022-07-27T17:32:13.797Z,87.40
2022-07-27T17:34:46.476Z,87.40
2022-07-27T17:37:16.491Z,87.50
2022-07-27T17:39:46.490Z,87.60
2022-07-27T17:42:16.185Z,87.60
2022-07-27T17:44:45.509Z,87.70
2022-07-27T17:47:15.241Z,87.90
2022-07-27T17:49:46.078Z,87.90
2022-07-27T17:52:16.223Z,88.00
2022-07-27T17:54:48.454Z,88.10
2022-07-27T17:57:18.125Z,88.30
2022-07-27T17:59:47.588Z,88.40
2022-07-27T18:02:19.666Z,88.60
2022-07-27T18:04:49.157Z,88.60
2022-07-27T18:07:18.436Z,88.60
2022-07-27T18:09:47.526Z,88.80
2022-07-27T18:12:22.481Z,89.10
2022-07-27T18:15:10.055Z,89.10
2022-07-27T18:17:40.335Z,89.30
2022-07-27T18:20:13.079Z,89.40
2022-07-27T18:22:42.329Z,89.30
2022-07-27T18:25:12.079Z,89.50
2022-07-27T18:27:42.003Z,89.30
2022-07-27T18:30:11.524Z,89.80
2022-07-27T18:32:40.774Z,89.90
2022-07-27T18:35:10.796Z,89.90
2022-07-27T18:37:40.062Z,89.90
2022-07-27T18:40:10.376Z,90.00
2022-07-27T18:42:40.557Z,90.00
2022-07-27T18:45:11.500Z,89.90
2022-07-27T18:47:40.774Z,90.00
2022-07-27T18:50:19.028Z,90.00
2022-07-27T18:52:48.144Z,90.10
2022-07-27T18:55:19.737Z,90.10
2022-07-27T18:57:49.725Z,90.10
2022-07-27T19:00:18.868Z,90.20
2022-07-27T19:02:55.312Z,90.20
2022-07-27T19:05:32.204Z,90.20
2022-07-27T19:08:13.531Z,90.30
2022-07-27T19:10:46.643Z,90.40
2022-07-27T19:13:16.058Z,90.50
2022-07-27T19:15:46.361Z,90.60
2022-07-27T19:18:15.748Z,90.60
2022-07-27T19:20:45.137Z,90.50
2022-07-27T19:23:14.804Z,90.50
2022-07-27T19:25:46.262Z,90.50
2022-07-27T19:28:21.394Z,90.60
2022-07-27T19:30:51.071Z,90.70
2022-07-27T19:33:20.675Z,90.70
2022-07-27T19:35:51.695Z,90.70
2022-07-27T19:38:21.217Z,90.80
2022-07-27T19:40:50.615Z,90.90
2022-07-27T19:43:20.642Z,90.90
2022-07-27T19:45:50.142Z,90.80
2022-07-27T19:48:19.665Z,90.90
2022-07-27T19:50:48.975Z,90.90
2022-07-27T19:53:18.304Z,91.10
2022-07-27T19:55:47.663Z,91.00
2022-07-27T19:58:17.331Z,91.10
2022-07-27T20:00:51.401Z,91.20
2022-07-27T20:03:21.828Z,91.20
2022-07-27T20:05:51.265Z,91.20
2022-07-27T20:08:20.686Z,91.20
2022-07-27T20:10:50.159Z,91.30
2022-07-27T20:13:19.617Z,91.30
2022-07-27T20:15:49.050Z,91.30
2022-07-27T20:18:18.375Z,91.30
2022-07-27T20:20:47.931Z,91.30
2022-07-27T20:23:17.402Z,91.40
2022-07-27T20:25:46.726Z,91.30
2022-07-27T20:28:15.999Z,91.50
2022-07-27T20:30:45.437Z,91.50
2022-07-27T20:33:16.233Z,91.60
2022-07-27T20:35:45.566Z,91.50
2022-07-27T20:38:14.991Z,91.60
2022-07-27T20:40:44.610Z,91.60
2022-07-27T20:43:14.280Z,91.70
2022-07-27T20:45:43.667Z,91.80
2022-07-27T20:48:13.087Z,91.70
2022-07-27T20:50:42.443Z,91.80
2022-07-27T20:53:11.806Z,91.80
2022-07-27T20:55:42.053Z,91.80
2022-07-27T20:58:11.501Z,91.90
2022-07-27T21:00:41.056Z,91.90
2022-07-27T21:03:10.466Z,91.90
2022-07-27T21:05:39.619Z,92.00
2022-07-27T21:08:08.722Z,92.00
2022-07-27T21:10:37.884Z,92.10
2022-07-27T21:13:07.210Z,92.10
2022-07-27T21:15:36.522Z,92.20
2022-07-27T21:18:05.778Z,92.20
2022-07-27T21:20:34.957Z,92.20
2022-07-27T21:23:21.751Z,92.30
2022-07-27T21:25:50.932Z,92.30
2022-07-27T21:28:23.066Z,92.50
2022-07-27T21:30:54.430Z,92.50
2022-07-27T21:33:23.676Z,92.50
2022-07-27T21:35:52.937Z,92.50
2022-07-27T21:38:22.181Z,92.50
2022-07-27T21:40:51.325Z,92.50
2022-07-27T21:43:20.671Z,92.60
2022-07-27T21:45:50.169Z,92.50
2022-07-27T21:48:19.419Z,92.70
2022-07-27T21:50:48.453Z,92.70
2022-07-27T21:53:17.836Z,92.70
2022-07-27T21:55:47.491Z,92.60
2022-07-27T21:58:16.792Z,92.70
2022-07-27T22:00:45.939Z,92.70
2022-07-27T22:03:15.839Z,92.70
2022-07-27T22:05:45.398Z,92.80
2022-07-27T22:08:14.722Z,92.70
2022-07-27T22:10:44.026Z,92.70
2022-07-27T22:13:14.815Z,92.90
2022-07-27T22:15:44.148Z,92.90
2022-07-27T22:18:13.523Z,92.90
2022-07-27T22:20:42.988Z,92.90
2022-07-27T22:23:12.356Z,92.90
2022-07-27T22:25:42.169Z,92.80
2022-07-27T22:28:11.530Z,92.80
2022-07-27T22:30:41.336Z,92.90
2022-07-27T22:33:10.823Z,92.90
2022-07-27T22:35:40.259Z,92.90
2022-07-27T22:38:09.614Z,93.00
2022-07-27T22:40:39.053Z,93.00
2022-07-27T22:43:08.511Z,93.00
2022-07-27T22:45:37.889Z,93.00
2022-07-27T22:48:07.624Z,93.00
2022-07-27T22:50:36.968Z,93.00
2022-07-27T22:53:06.588Z,93.00
2022-07-27T22:55:38.968Z,93.00
2022-07-27T22:58:08.527Z,93.10
2022-07-27T23:00:37.970Z,93.20
2022-07-27T23:03:07.581Z,93.20
2022-07-27T23:05:36.807Z,93.20
2022-07-27T23:08:06.145Z,93.30
2022-07-27T23:10:47.310Z,93.30
2022-07-27T23:13:18.303Z,93.20
2022-07-27T23:15:48.331Z,93.20
2022-07-27T23:18:18.151Z,93.30
2022-07-27T23:20:47.339Z,93.20
2022-07-27T23:23:17.018Z,93.30
2022-07-27T23:25:47.609Z,93.50
2022-07-27T23:28:17.857Z,93.40
2022-07-27T23:30:47.012Z,93.40
2022-07-27T23:33:16.633Z,93.60
2022-07-27T23:35:46.355Z,93.60
2022-07-27T23:38:15.510Z,93.40
2022-07-27T23:40:44.630Z,93.40
2022-07-27T23:43:13.890Z,93.40
2022-07-27T23:45:43.036Z,93.40
2022-07-27T23:48:12.112Z,93.30
2022-07-27T23:50:41.227Z,93.30
2022-07-27T23:53:10.651Z,93.10
2022-07-27T23:55:39.828Z,93.20
2022-07-27T23:58:08.939Z,93.30
